createdAt,value
2018-05-16T00:04:26.978Z,11.00
2018-05-16T00:09:10.327Z,11.00
2018-05-16T00:13:53.747Z,11.00
2018-05-16T00:18:37.052Z,11.00
2018-05-16T00:23:20.520Z,10.80
2018-05-16T00:28:03.835Z,10.80
2018-05-16T00:32:47.996Z,10.60
2018-05-16T00:37:31.339Z,10.60
2018-05-16T00:42:14.676Z,10.60
2018-05-16T00:46:58.145Z,10.50
2018-05-16T00:51:41.460Z,10.40
2018-05-16T00:56:24.768Z,10.30
2018-05-16T01:01:08.162Z,10.20
2018-05-16T01:05:52.241Z,10.20
2018-05-16T01:10:35.708Z,10.20
2018-05-16T01:15:19.092Z,10.20
2018-05-16T01:20:02.382Z,10.10
2018-05-16T01:24:45.742Z,10.00
2018-05-16T01:29:29.152Z,10.00
2018-05-16T01:34:12.511Z,10.10
2018-05-16T01:38:55.832Z,10.20
2018-05-16T01:43:39.141Z,10.10
2018-05-16T01:48:22.500Z,10.10
2018-05-16T01:53:05.863Z,10.20
2018-05-16T01:57:49.253Z,10.40
2018-05-16T02:02:32.603Z,10.40
2018-05-16T02:07:15.949Z,10.40
2018-05-16T02:11:59.319Z,10.40
2018-05-16T02:16:42.689Z,10.40
2018-05-16T02:21:26.825Z,10.40
2018-05-16T02:26:10.163Z,10.40
2018-05-16T02:30:53.482Z,10.40
2018-05-16T02:35:36.808Z,10.40
2018-05-16T02:40:20.178Z,10.40
2018-05-16T02:45:03.487Z,10.50
2018-05-16T02:49:47.593Z,10.60
2018-05-16T02:54:31.152Z,10.60
2018-05-16T02:59:15.250Z,10.60
2018-05-16T03:03:58.605Z,10.50
2018-05-16T03:08:41.958Z,10.60
2018-05-16T03:13:25.348Z,10.60
2018-05-16T03:18:09.488Z,10.70
2018-05-16T03:22:52.821Z,10.70
2018-05-16T03:27:36.175Z,10.70
2018-05-16T03:32:19.650Z,10.70
2018-05-16T03:37:03.163Z,10.80
2018-05-16T03:41:46.601Z,10.80
2018-05-16T03:46:29.932Z,10.80
2018-05-16T03:51:13.344Z,10.80
2018-05-16T03:55:57.350Z,10.80
2018-05-16T04:00:52.468Z,10.80
2018-05-16T04:05:35.868Z,10.80
2018-05-16T04:15:09.798Z,10.70
2018-05-16T04:19:53.254Z,10.80
2018-05-16T04:24:37.441Z,10.80
2018-05-16T04:29:20.857Z,10.70
2018-05-16T04:34:04.374Z,10.80
2018-05-16T04:38:48.035Z,10.90
2018-05-16T04:43:31.640Z,10.80
2018-05-16T04:48:15.038Z,10.90
2018-05-16T04:52:58.647Z,11.00
2018-05-16T04:57:42.875Z,11.00
2018-05-16T05:02:26.287Z,11.00
2018-05-16T05:07:10.890Z,10.90
2018-05-16T05:11:55.136Z,11.00
2018-05-16T05:16:38.564Z,10.90
2018-05-16T05:21:21.945Z,10.90
2018-05-16T05:26:05.370Z,10.90
2018-05-16T05:30:48.826Z,10.80
2018-05-16T05:35:34.264Z,10.80
2018-05-16T05:40:17.970Z,10.80
2018-05-16T05:45:02.192Z,10.70
2018-05-16T05:49:45.652Z,10.70
2018-05-16T05:54:31.265Z,10.90
2018-05-16T05:59:14.737Z,10.80
2018-05-16T06:03:58.110Z,10.90
2018-05-16T06:08:41.520Z,11.10
2018-05-16T06:13:25.094Z,11.30
2018-05-16T06:18:08.582Z,11.20
2018-05-16T06:22:52.013Z,11.10
2018-05-16T06:27:35.484Z,11.00
2018-05-16T06:32:18.891Z,11.00
2018-05-16T06:37:02.325Z,10.90
2018-05-16T06:41:45.694Z,10.90
2018-05-16T06:46:29.178Z,11.00
2018-05-16T06:51:12.505Z,11.10
2018-05-16T06:55:55.956Z,11.10
2018-05-16T07:00:46.662Z,11.20
2018-05-16T07:05:31.870Z,11.60
2018-05-16T07:10:15.276Z,11.60
2018-05-16T07:14:59.375Z,11.90
2018-05-16T07:19:42.920Z,11.80
2018-05-16T07:24:26.332Z,12.00
2018-05-16T07:29:10.425Z,12.50
2018-05-16T07:33:53.845Z,12.40
2018-05-16T07:38:37.217Z,12.50
2018-05-16T07:43:20.844Z,12.30
2018-05-16T07:48:11.059Z,12.00
2018-05-16T07:52:54.525Z,11.80
2018-05-16T07:57:37.919Z,11.70
2018-05-16T08:02:21.320Z,11.70
2018-05-16T08:07:04.704Z,12.10
2018-05-16T08:11:48.234Z,12.40
2018-05-16T08:16:31.566Z,12.50
2018-05-16T08:21:14.925Z,12.80
2018-05-16T08:25:58.278Z,13.10
2018-05-16T08:30:41.654Z,13.00
2018-05-16T08:35:25.069Z,13.30
2018-05-16T08:40:08.381Z,13.30
2018-05-16T08:44:51.750Z,13.30
2018-05-16T08:49:35.132Z,13.50
2018-05-16T08:54:18.479Z,13.60
2018-05-16T08:59:01.791Z,13.50
2018-05-16T09:03:45.174Z,13.50
2018-05-16T09:08:28.549Z,13.70
2018-05-16T09:13:11.987Z,13.80
2018-05-16T09:17:55.379Z,14.20
2018-05-16T09:22:38.706Z,14.50
2018-05-16T09:27:22.051Z,14.90
2018-05-16T09:32:05.489Z,14.60
2018-05-16T09:36:48.843Z,14.60
2018-05-16T09:41:32.151Z,14.50
2018-05-16T09:46:15.537Z,14.60
2018-05-16T09:50:58.895Z,14.50
2018-05-16T09:55:42.273Z,14.50
2018-05-16T10:00:31.141Z,14.30
2018-05-16T10:05:14.498Z,14.50
2018-05-16T10:09:57.899Z,14.40
2018-05-16T10:14:41.232Z,14.30
2018-05-16T10:19:24.576Z,14.30
2018-05-16T10:24:07.937Z,14.40
2018-05-16T10:28:51.304Z,14.70
2018-05-16T10:33:34.673Z,14.80
2018-05-16T10:38:18.776Z,14.70
2018-05-16T10:43:02.072Z,14.60
2018-05-16T10:47:45.456Z,14.70
2018-05-16T10:52:28.827Z,14.60
2018-05-16T10:57:12.197Z,14.50
2018-05-16T11:01:56.294Z,14.90
2018-05-16T11:06:39.691Z,14.80
2018-05-16T11:11:23.802Z,14.90
2018-05-16T11:16:07.314Z,14.90
2018-05-16T11:20:50.697Z,15.00
2018-05-16T11:25:34.062Z,15.10
2018-05-16T11:30:17.482Z,15.50
2018-05-16T11:35:00.835Z,16.40
2018-05-16T11:39:44.189Z,17.10
2018-05-16T11:44:27.577Z,18.00
2018-05-16T11:49:10.916Z,18.60
2018-05-16T11:53:54.311Z,19.50
2018-05-16T11:58:37.761Z,20.60
2018-05-16T12:03:21.893Z,21.20
2018-05-16T12:08:05.442Z,21.20
2018-05-16T12:12:49.796Z,22.40
2018-05-16T12:17:33.150Z,23.50
2018-05-16T12:22:16.526Z,23.20
2018-05-16T12:26:59.904Z,23.10
2018-05-16T12:31:43.201Z,23.20
2018-05-16T12:36:28.031Z,23.40
2018-05-16T12:41:12.165Z,23.10
2018-05-16T12:45:55.604Z,23.10
2018-05-16T12:50:39.957Z,22.40
2018-05-16T12:55:23.490Z,22.20
2018-05-16T13:00:07.771Z,23.20
2018-05-16T13:04:51.542Z,23.20
2018-05-16T13:09:35.024Z,23.20
2018-05-16T13:14:18.551Z,23.60
2018-05-16T13:19:02.068Z,23.60
2018-05-16T13:23:47.520Z,23.90
2018-05-16T13:28:31.011Z,24.10
2018-05-16T13:33:14.658Z,25.30
2018-05-16T13:37:58.223Z,25.70
2018-05-16T13:42:44.743Z,25.30
2018-05-16T13:47:29.024Z,24.40
2018-05-16T13:52:12.443Z,24.40
2018-05-16T13:56:56.645Z,25.60
2018-05-16T14:01:40.165Z,25.60
2018-05-16T14:06:24.544Z,24.70
2018-05-16T14:11:08.001Z,24.60
2018-05-16T14:15:51.485Z,23.70
2018-05-16T14:20:34.878Z,22.80
2018-05-16T14:25:18.380Z,21.90
2018-05-16T14:30:01.827Z,21.70
2018-05-16T14:34:46.077Z,21.20
2018-05-16T14:39:29.731Z,21.20
2018-05-16T14:44:14.021Z,21.60
2018-05-16T14:48:58.237Z,21.40
2018-05-16T14:53:41.618Z,21.40
2018-05-16T14:58:25.041Z,19.80
2018-05-16T15:03:08.416Z,19.20
2018-05-16T15:07:51.780Z,19.30
2018-05-16T15:12:35.212Z,19.40
2018-05-16T15:17:19.373Z,18.00
2018-05-16T15:22:02.690Z,17.90
2018-05-16T15:26:46.905Z,16.50
2018-05-16T15:31:30.247Z,16.50
2018-05-16T15:36:13.623Z,16.20
2018-05-16T15:40:56.938Z,16.00
2018-05-16T15:45:40.364Z,15.90
2018-05-16T15:50:23.695Z,15.50
2018-05-16T15:55:06.985Z,15.30
2018-05-16T15:59:50.389Z,14.90
2018-05-16T16:04:33.836Z,14.70
2018-05-16T16:09:17.895Z,14.50
2018-05-16T16:14:02.012Z,14.50
2018-05-16T16:18:46.127Z,14.60
2018-05-16T16:23:29.491Z,14.60
2018-05-16T16:28:12.799Z,14.80
2018-05-16T16:32:56.145Z,15.00
2018-05-16T16:37:39.521Z,15.40
2018-05-16T16:42:24.220Z,15.30
2018-05-16T16:47:08.351Z,15.20
2018-05-16T16:51:51.711Z,15.20
2018-05-16T16:56:35.847Z,15.50
2018-05-16T17:01:19.214Z,15.50
2018-05-16T17:06:02.625Z,15.50
2018-05-16T17:10:46.072Z,15.70
2018-05-16T17:15:29.458Z,15.50
2018-05-16T17:20:13.037Z,15.20
2018-05-16T17:24:56.384Z,15.00
2018-05-16T17:29:42.514Z,14.70
2018-05-16T17:34:25.914Z,14.50
2018-05-16T17:39:09.276Z,14.30
2018-05-16T17:43:52.784Z,14.20
2018-05-16T17:48:36.158Z,14.00
2018-05-16T17:53:19.537Z,13.80
2018-05-16T17:58:03.015Z,13.70
2018-05-16T18:02:46.384Z,13.70
2018-05-16T18:07:30.530Z,13.50
2018-05-16T18:12:13.945Z,13.50
2018-05-16T18:17:09.246Z,13.40
2018-05-16T18:21:53.388Z,13.20
2018-05-16T18:26:36.727Z,13.20
2018-05-16T18:31:20.060Z,13.00
2018-05-16T18:36:03.405Z,12.90
2018-05-16T18:40:46.752Z,12.80
2018-05-16T18:45:30.093Z,12.50
2018-05-16T18:50:13.447Z,12.50
2018-05-16T18:54:56.997Z,12.40
2018-05-16T18:59:40.404Z,12.20
2018-05-16T19:04:23.767Z,12.00
2018-05-16T19:09:07.787Z,11.90
2018-05-16T19:13:51.285Z,11.90
2018-05-16T19:18:34.889Z,12.10
2018-05-16T19:23:18.669Z,12.10
2018-05-16T19:28:02.358Z,12.10
2018-05-16T19:32:45.883Z,12.20
2018-05-16T19:37:30.441Z,12.20
2018-05-16T19:42:13.962Z,12.20
2018-05-16T19:46:57.414Z,12.40
2018-05-16T19:51:40.827Z,12.40
2018-05-16T19:56:24.290Z,12.50
2018-05-16T20:01:07.797Z,12.50
2018-05-16T20:05:51.281Z,12.50
2018-05-16T20:10:35.012Z,12.60
2018-05-16T20:15:18.475Z,12.60
2018-05-16T20:20:02.630Z,12.70
2018-05-16T20:24:46.139Z,12.70
2018-05-16T20:29:29.583Z,12.70
2018-05-16T20:34:12.980Z,12.60
2018-05-16T20:38:56.373Z,12.60
2018-05-16T20:43:39.783Z,12.60
2018-05-16T20:48:23.248Z,12.70
2018-05-16T20:53:06.684Z,12.60
2018-05-16T20:57:50.040Z,12.60
2018-05-16T21:02:34.372Z,12.70
2018-05-16T21:07:17.796Z,12.70
2018-05-16T21:12:01.972Z,12.60
2018-05-16T21:16:46.087Z,12.60
2018-05-16T21:21:30.268Z,12.70
2018-05-16T21:26:14.396Z,12.70
2018-05-16T21:30:57.812Z,12.60
2018-05-16T21:35:41.375Z,12.70
2018-05-16T21:40:24.818Z,12.80
2018-05-16T21:45:08.207Z,12.80
2018-05-16T21:49:52.465Z,12.80
2018-05-16T21:54:36.618Z,12.80
2018-05-16T21:59:20.795Z,12.80
2018-05-16T22:04:04.987Z,12.80
2018-05-16T22:08:48.388Z,12.80
2018-05-16T22:13:32.562Z,12.60
2018-05-16T22:18:15.891Z,12.60
2018-05-16T22:22:59.366Z,12.50
2018-05-16T22:27:42.788Z,12.50
2018-05-16T22:32:31.731Z,12.50
2018-05-16T22:37:20.867Z,12.50
2018-05-16T22:42:09.996Z,12.60
2018-05-16T22:46:53.544Z,12.60
2018-05-16T22:51:36.958Z,12.60
2018-05-16T22:56:21.222Z,12.50
2018-05-16T23:01:04.828Z,12.60
2018-05-16T23:05:48.608Z,12.60
2018-05-16T23:10:32.912Z,12.60
2018-05-16T23:15:17.310Z,12.70
2018-05-16T23:20:01.624Z,12.70
2018-05-16T23:24:45.148Z,12.70
2018-05-16T23:29:28.759Z,12.70
2018-05-16T23:34:12.280Z,12.60
2018-05-16T23:38:56.402Z,12.50
2018-05-16T23:43:39.761Z,12.50
2018-05-16T23:48:23.132Z,12.60
2018-05-16T23:53:06.568Z,12.60
2018-05-16T23:57:50.712Z,12.60
